sensor_id;sensor_type;location;lat;lon;timestamp;P1;P2;P0
57884;PMS5003;43703;51.060;-0.086;2023-02-28T00:02:22;3;3;
57884;PMS5003;43703;51.060;-0.086;2023-02-28T00:04:48;2;1;
57884;PMS5003;43703;51.060;-0.086;2023-02-28T00:07:13;3;3;
57884;PMS5003;43703;51.060;-0.086;2023-02-28T00:09:39;2;2;
57884;PMS5003;43703;51.060;-0.086;2023-02-28T00:12:04;3;3;
57884;PMS5003;43703;51.060;-0.086;2023-02-28T00:14:29;3;3;
57884;PMS5003;43703;51.060;-0.086;2023-02-28T00:16:54;3;3;
57884;PMS5003;43703;51.060;-0.086;2023-02-28T00:19:19;4;4;
57884;PMS5003;43703;51.060;-0.086;2023-02-28T00:21:45;3;3;
57884;PMS5003;43703;51.060;-0.086;2023-02-28T00:24:10;3;3;
57884;PMS5003;43703;51.060;-0.086;2023-02-28T00:26:35;4;4;
57884;PMS5003;43703;51.060;-0.086;2023-02-28T00:29:00;4;4;
57884;PMS5003;43703;51.060;-0.086;2023-02-28T00:31:25;3;3;
57884;PMS5003;43703;51.060;-0.086;2023-02-28T00:33:50;3;3;
57884;PMS5003;43703;51.060;-0.086;2023-02-28T00:36:15;2;2;
57884;PMS5003;43703;51.060;-0.086;2023-02-28T00:38:40;4;2;
57884;PMS5003;43703;51.060;-0.086;2023-02-28T00:41:05;4;4;
57884;PMS5003;43703;51.060;-0.086;2023-02-28T00:43:31;4;2;
57884;PMS5003;43703;51.060;-0.086;2023-02-28T00:45:56;2;2;
57884;PMS5003;43703;51.060;-0.086;2023-02-28T00:48:21;2;2;
57884;PMS5003;43703;51.060;-0.086;2023-02-28T00:50:48;4;2;
57884;PMS5003;43703;51.060;-0.086;2023-02-28T00:53:11;3;3;
57884;PMS5003;43703;51.060;-0.086;2023-02-28T00:55:36;3;2;
57884;PMS5003;43703;51.060;-0.086;2023-02-28T00:58:01;5;3;
57884;PMS5003;43703;51.060;-0.086;2023-02-28T01:00:27;3;3;
57884;PMS5003;43703;51.060;-0.086;2023-02-28T01:02:52;3;3;
57884;PMS5003;43703;51.060;-0.086;2023-02-28T01:05:17;3;3;
57884;PMS5003;43703;51.060;-0.086;2023-02-28T01:07:42;2;2;
57884;PMS5003;43703;51.060;-0.086;2023-02-28T01:10:08;3;3;
57884;PMS5003;43703;51.060;-0.086;2023-02-28T01:12:32;5;4;
57884;PMS5003;43703;51.060;-0.086;2023-02-28T01:14:57;4;2;
57884;PMS5003;43703;51.060;-0.086;2023-02-28T01:17:22;3;3;
57884;PMS5003;43703;51.060;-0.086;2023-02-28T01:19:47;3;3;
57884;PMS5003;43703;51.060;-0.086;2023-02-28T01:22:12;4;4;
57884;PMS5003;43703;51.060;-0.086;2023-02-28T01:24:40;7;5;
57884;PMS5003;43703;51.060;-0.086;2023-02-28T01:27:04;6;5;
57884;PMS5003;43703;51.060;-0.086;2023-02-28T01:29:30;4;4;
57884;PMS5003;43703;51.060;-0.086;2023-02-28T01:31:55;5;4;
57884;PMS5003;43703;51.060;-0.086;2023-02-28T01:34:20;4;3;
57884;PMS5003;43703;51.060;-0.086;2023-02-28T01:36:45;3;3;
57884;PMS5003;43703;51.060;-0.086;2023-02-28T01:39:11;7;4;
57884;PMS5003;43703;51.060;-0.086;2023-02-28T01:41:36;4;4;
57884;PMS5003;43703;51.060;-0.086;2023-02-28T01:44:03;3;3;
57884;PMS5003;43703;51.060;-0.086;2023-02-28T01:46:26;9;5;
57884;PMS5003;43703;51.060;-0.086;2023-02-28T01:48:53;4;4;
57884;PMS5003;43703;51.060;-0.086;2023-02-28T01:51:18;4;3;
57884;PMS5003;43703;51.060;-0.086;2023-02-28T01:53:42;5;4;
57884;PMS5003;43703;51.060;-0.086;2023-02-28T01:56:07;5;5;
57884;PMS5003;43703;51.060;-0.086;2023-02-28T01:58:32;4;4;
57884;PMS5003;43703;51.060;-0.086;2023-02-28T02:00:58;4;4;
57884;PMS5003;43703;51.060;-0.086;2023-02-28T02:03:23;6;6;
57884;PMS5003;43703;51.060;-0.086;2023-02-28T02:05:48;5;4;
57884;PMS5003;43703;51.060;-0.086;2023-02-28T02:08:15;6;6;
57884;PMS5003;43703;51.060;-0.086;2023-02-28T02:10:40;8;5;
57884;PMS5003;43703;51.060;-0.086;2023-02-28T02:13:08;5;5;
57884;PMS5003;43703;51.060;-0.086;2023-02-28T02:15:30;3;3;
57884;PMS5003;43703;51.060;-0.086;2023-02-28T02:17:56;7;4;
57884;PMS5003;43703;51.060;-0.086;2023-02-28T02:25:12;7;5;
57884;PMS5003;43703;51.060;-0.086;2023-02-28T02:27:40;3;3;
57884;PMS5003;43703;51.060;-0.086;2023-02-28T02:32:31;6;6;
57884;PMS5003;43703;51.060;-0.086;2023-02-28T02:34:52;5;5;
57884;PMS5003;43703;51.060;-0.086;2023-02-28T02:37:21;5;4;
57884;PMS5003;43703;51.060;-0.086;2023-02-28T02:39:44;7;6;
57884;PMS5003;43703;51.060;-0.086;2023-02-28T02:42:09;9;7;
57884;PMS5003;43703;51.060;-0.086;2023-02-28T02:44:34;5;5;
57884;PMS5003;43703;51.060;-0.086;2023-02-28T02:46:58;8;6;
57884;PMS5003;43703;51.060;-0.086;2023-02-28T02:49:22;5;5;
57884;PMS5003;43703;51.060;-0.086;2023-02-28T02:51:47;5;5;
57884;PMS5003;43703;51.060;-0.086;2023-02-28T02:54:12;7;6;
57884;PMS5003;43703;51.060;-0.086;2023-02-28T02:56:37;7;6;
57884;PMS5003;43703;51.060;-0.086;2023-02-28T02:59:04;5;5;
57884;PMS5003;43703;51.060;-0.086;2023-02-28T03:01:28;4;4;
57884;PMS5003;43703;51.060;-0.086;2023-02-28T03:03:55;9;7;
57884;PMS5003;43703;51.060;-0.086;2023-02-28T03:06:19;7;7;
57884;PMS5003;43703;51.060;-0.086;2023-02-28T03:08:45;5;5;
57884;PMS5003;43703;51.060;-0.086;2023-02-28T03:11:13;10;6;
57884;PMS5003;43703;51.060;-0.086;2023-02-28T03:13:39;8;7;
57884;PMS5003;43703;51.060;-0.086;2023-02-28T03:16:07;6;6;
57884;PMS5003;43703;51.060;-0.086;2023-02-28T03:18:28;4;4;
57884;PMS5003;43703;51.060;-0.086;2023-02-28T03:20:53;6;6;
57884;PMS5003;43703;51.060;-0.086;2023-02-28T03:23:17;8;8;
57884;PMS5003;43703;51.060;-0.086;2023-02-28T03:25:45;9;8;
57884;PMS5003;43703;51.060;-0.086;2023-02-28T03:28:08;7;7;
57884;PMS5003;43703;51.060;-0.086;2023-02-28T03:30:34;7;6;
57884;PMS5003;43703;51.060;-0.086;2023-02-28T03:32:58;8;7;
57884;PMS5003;43703;51.060;-0.086;2023-02-28T03:35:23;8;7;
57884;PMS5003;43703;51.060;-0.086;2023-02-28T03:37:49;8;7;
57884;PMS5003;43703;51.060;-0.086;2023-02-28T03:40:15;6;6;
57884;PMS5003;43703;51.060;-0.086;2023-02-28T03:42:39;7;7;
57884;PMS5003;43703;51.060;-0.086;2023-02-28T03:45:05;7;7;
57884;PMS5003;43703;51.060;-0.086;2023-02-28T03:47:31;8;7;
57884;PMS5003;43703;51.060;-0.086;2023-02-28T03:49:54;8;8;
57884;PMS5003;43703;51.060;-0.086;2023-02-28T03:52:20;11;8;
57884;PMS5003;43703;51.060;-0.086;2023-02-28T03:54:46;7;7;
57884;PMS5003;43703;51.060;-0.086;2023-02-28T03:57:11;9;7;
57884;PMS5003;43703;51.060;-0.086;2023-02-28T03:59:36;12;9;
57884;PMS5003;43703;51.060;-0.086;2023-02-28T04:02:01;9;9;
57884;PMS5003;43703;51.060;-0.086;2023-02-28T04:04:26;13;10;
57884;PMS5003;43703;51.060;-0.086;2023-02-28T04:06:53;13;11;
57884;PMS5003;43703;51.060;-0.086;2023-02-28T04:09:16;11;10;
57884;PMS5003;43703;51.060;-0.086;2023-02-28T04:11:42;11;10;
57884;PMS5003;43703;51.060;-0.086;2023-02-28T04:14:08;11;11;
57884;PMS5003;43703;51.060;-0.086;2023-02-28T04:16:33;15;11;
57884;PMS5003;43703;51.060;-0.086;2023-02-28T04:18:58;11;11;
57884;PMS5003;43703;51.060;-0.086;2023-02-28T04:21:23;15;15;
57884;PMS5003;43703;51.060;-0.086;2023-02-28T04:23:48;13;11;
57884;PMS5003;43703;51.060;-0.086;2023-02-28T04:26:14;14;14;
57884;PMS5003;43703;51.060;-0.086;2023-02-28T04:28:39;12;12;
57884;PMS5003;43703;51.060;-0.086;2023-02-28T04:31:04;15;14;
57884;PMS5003;43703;51.060;-0.086;2023-02-28T04:33:30;14;13;
57884;PMS5003;43703;51.060;-0.086;2023-02-28T04:35:58;11;11;
57884;PMS5003;43703;51.060;-0.086;2023-02-28T04:38:20;19;17;
57884;PMS5003;43703;51.060;-0.086;2023-02-28T04:40:45;17;14;
57884;PMS5003;43703;51.060;-0.086;2023-02-28T04:43:10;17;15;
57884;PMS5003;43703;51.060;-0.086;2023-02-28T04:45:35;15;13;
57884;PMS5003;43703;51.060;-0.086;2023-02-28T04:48:01;14;14;
57884;PMS5003;43703;51.060;-0.086;2023-02-28T04:50:26;17;14;
57884;PMS5003;43703;51.060;-0.086;2023-02-28T04:52:52;17;15;
57884;PMS5003;43703;51.060;-0.086;2023-02-28T04:55:17;16;15;
57884;PMS5003;43703;51.060;-0.086;2023-02-28T04:57:43;13;12;
57884;PMS5003;43703;51.060;-0.086;2023-02-28T05:00:08;16;16;
57884;PMS5003;43703;51.060;-0.086;2023-02-28T05:02:34;15;15;
57884;PMS5003;43703;51.060;-0.086;2023-02-28T05:04:59;15;14;
57884;PMS5003;43703;51.060;-0.086;2023-02-28T05:07:24;16;16;
57884;PMS5003;43703;51.060;-0.086;2023-02-28T05:09:50;18;18;
57884;PMS5003;43703;51.060;-0.086;2023-02-28T05:12:15;18;17;
57884;PMS5003;43703;51.060;-0.086;2023-02-28T05:14:41;13;13;
57884;PMS5003;43703;51.060;-0.086;2023-02-28T05:17:07;14;13;
57884;PMS5003;43703;51.060;-0.086;2023-02-28T05:19:31;15;15;
57884;PMS5003;43703;51.060;-0.086;2023-02-28T05:21:57;15;15;
57884;PMS5003;43703;51.060;-0.086;2023-02-28T05:24:22;14;14;
57884;PMS5003;43703;51.060;-0.086;2023-02-28T05:26:47;17;16;
57884;PMS5003;43703;51.060;-0.086;2023-02-28T05:29:13;14;14;
57884;PMS5003;43703;51.060;-0.086;2023-02-28T05:31:38;19;17;
57884;PMS5003;43703;51.060;-0.086;2023-02-28T05:34:04;19;16;
57884;PMS5003;43703;51.060;-0.086;2023-02-28T05:36:29;20;17;
57884;PMS5003;43703;51.060;-0.086;2023-02-28T05:38:54;17;17;
57884;PMS5003;43703;51.060;-0.086;2023-02-28T05:41:20;20;19;
57884;PMS5003;43703;51.060;-0.086;2023-02-28T05:43:45;18;17;
57884;PMS5003;43703;51.060;-0.086;2023-02-28T05:46:11;17;17;
57884;PMS5003;43703;51.060;-0.086;2023-02-28T05:48:37;24;19;
57884;PMS5003;43703;51.060;-0.086;2023-02-28T05:51:03;20;19;
57884;PMS5003;43703;51.060;-0.086;2023-02-28T05:53:28;22;19;
57884;PMS5003;43703;51.060;-0.086;2023-02-28T05:55:54;15;15;
57884;PMS5003;43703;51.060;-0.086;2023-02-28T05:58:19;18;18;
57884;PMS5003;43703;51.060;-0.086;2023-02-28T06:00:44;16;15;
57884;PMS5003;43703;51.060;-0.086;2023-02-28T06:03:10;15;15;
57884;PMS5003;43703;51.060;-0.086;2023-02-28T06:05:36;15;15;
57884;PMS5003;43703;51.060;-0.086;2023-02-28T06:08:01;16;15;
57884;PMS5003;43703;51.060;-0.086;2023-02-28T06:10:26;23;18;
57884;PMS5003;43703;51.060;-0.086;2023-02-28T06:12:52;19;18;
57884;PMS5003;43703;51.060;-0.086;2023-02-28T06:15:17;19;17;
57884;PMS5003;43703;51.060;-0.086;2023-02-28T06:17:43;16;16;
57884;PMS5003;43703;51.060;-0.086;2023-02-28T06:20:08;16;14;
57884;PMS5003;43703;51.060;-0.086;2023-02-28T06:22:33;16;13;
57884;PMS5003;43703;51.060;-0.086;2023-02-28T06:24:58;13;13;
57884;PMS5003;43703;51.060;-0.086;2023-02-28T06:27:24;11;11;
57884;PMS5003;43703;51.060;-0.086;2023-02-28T06:29:53;13;11;
57884;PMS5003;43703;51.060;-0.086;2023-02-28T06:32:14;15;14;
57884;PMS5003;43703;51.060;-0.086;2023-02-28T06:34:40;13;13;
57884;PMS5003;43703;51.060;-0.086;2023-02-28T06:37:06;15;12;
57884;PMS5003;43703;51.060;-0.086;2023-02-28T06:39:31;12;12;
57884;PMS5003;43703;51.060;-0.086;2023-02-28T06:41:56;14;14;
57884;PMS5003;43703;51.060;-0.086;2023-02-28T06:44:22;13;11;
57884;PMS5003;43703;51.060;-0.086;2023-02-28T06:46:47;12;12;
57884;PMS5003;43703;51.060;-0.086;2023-02-28T06:49:12;15;15;
57884;PMS5003;43703;51.060;-0.086;2023-02-28T06:51:40;18;18;
57884;PMS5003;43703;51.060;-0.086;2023-02-28T06:54:04;14;14;
57884;PMS5003;43703;51.060;-0.086;2023-02-28T06:56:29;14;13;
57884;PMS5003;43703;51.060;-0.086;2023-02-28T06:58:54;10;10;
57884;PMS5003;43703;51.060;-0.086;2023-02-28T07:01:20;13;12;
57884;PMS5003;43703;51.060;-0.086;2023-02-28T07:03:45;12;12;
57884;PMS5003;43703;51.060;-0.086;2023-02-28T07:06:10;13;12;
57884;PMS5003;43703;51.060;-0.086;2023-02-28T07:08:36;13;13;
57884;PMS5003;43703;51.060;-0.086;2023-02-28T07:11:01;18;18;
57884;PMS5003;43703;51.060;-0.086;2023-02-28T07:13:26;22;18;
57884;PMS5003;43703;51.060;-0.086;2023-02-28T07:15:53;16;15;
57884;PMS5003;43703;51.060;-0.086;2023-02-28T07:18:17;13;12;
57884;PMS5003;43703;51.060;-0.086;2023-02-28T07:20:42;16;14;
57884;PMS5003;43703;51.060;-0.086;2023-02-28T07:23:08;16;13;
57884;PMS5003;43703;51.060;-0.086;2023-02-28T07:25:33;15;13;
57884;PMS5003;43703;51.060;-0.086;2023-02-28T07:27:58;18;14;
57884;PMS5003;43703;51.060;-0.086;2023-02-28T07:30:23;17;15;
57884;PMS5003;43703;51.060;-0.086;2023-02-28T07:32:49;13;13;
57884;PMS5003;43703;51.060;-0.086;2023-02-28T07:35:14;13;13;
57884;PMS5003;43703;51.060;-0.086;2023-02-28T07:37:39;13;13;
57884;PMS5003;43703;51.060;-0.086;2023-02-28T07:40:05;11;11;
57884;PMS5003;43703;51.060;-0.086;2023-02-28T07:42:29;12;12;
57884;PMS5003;43703;51.060;-0.086;2023-02-28T07:44:55;14;14;
57884;PMS5003;43703;51.060;-0.086;2023-02-28T07:47:21;14;14;
57884;PMS5003;43703;51.060;-0.086;2023-02-28T07:49:46;19;16;
57884;PMS5003;43703;51.060;-0.086;2023-02-28T07:52:11;16;15;
57884;PMS5003;43703;51.060;-0.086;2023-02-28T07:54:36;11;11;
57884;PMS5003;43703;51.060;-0.086;2023-02-28T07:57:01;17;14;
57884;PMS5003;43703;51.060;-0.086;2023-02-28T07:59:27;13;11;
57884;PMS5003;43703;51.060;-0.086;2023-02-28T08:01:52;10;10;
57884;PMS5003;43703;51.060;-0.086;2023-02-28T08:04:17;13;13;
57884;PMS5003;43703;51.060;-0.086;2023-02-28T08:06:43;16;15;
57884;PMS5003;43703;51.060;-0.086;2023-02-28T08:09:08;12;12;
57884;PMS5003;43703;51.060;-0.086;2023-02-28T08:11:33;13;13;
57884;PMS5003;43703;51.060;-0.086;2023-02-28T08:13:59;14;14;
57884;PMS5003;43703;51.060;-0.086;2023-02-28T08:16:24;14;14;
57884;PMS5003;43703;51.060;-0.086;2023-02-28T08:18:49;12;11;
57884;PMS5003;43703;51.060;-0.086;2023-02-28T08:21:14;12;11;
57884;PMS5003;43703;51.060;-0.086;2023-02-28T08:23:40;11;11;
57884;PMS5003;43703;51.060;-0.086;2023-02-28T08:26:05;12;11;
57884;PMS5003;43703;51.060;-0.086;2023-02-28T08:28:30;10;10;
57884;PMS5003;43703;51.060;-0.086;2023-02-28T08:30:56;13;13;
57884;PMS5003;43703;51.060;-0.086;2023-02-28T08:33:21;11;10;
57884;PMS5003;43703;51.060;-0.086;2023-02-28T08:35:46;9;9;
57884;PMS5003;43703;51.060;-0.086;2023-02-28T08:38:11;8;7;
57884;PMS5003;43703;51.060;-0.086;2023-02-28T08:40:36;11;10;
57884;PMS5003;43703;51.060;-0.086;2023-02-28T08:43:02;12;12;
57884;PMS5003;43703;51.060;-0.086;2023-02-28T08:45:27;15;10;
57884;PMS5003;43703;51.060;-0.086;2023-02-28T08:47:53;10;8;
57884;PMS5003;43703;51.060;-0.086;2023-02-28T08:50:18;10;8;
57884;PMS5003;43703;51.060;-0.086;2023-02-28T08:52:43;9;9;
57884;PMS5003;43703;51.060;-0.086;2023-02-28T08:55:08;8;8;
57884;PMS5003;43703;51.060;-0.086;2023-02-28T08:57:33;10;8;
57884;PMS5003;43703;51.060;-0.086;2023-02-28T08:59:59;9;9;
57884;PMS5003;43703;51.060;-0.086;2023-02-28T09:02:24;7;7;
57884;PMS5003;43703;51.060;-0.086;2023-02-28T09:04:49;9;8;
57884;PMS5003;43703;51.060;-0.086;2023-02-28T09:07:14;6;4;
57884;PMS5003;43703;51.060;-0.086;2023-02-28T09:09:39;5;5;
57884;PMS5003;43703;51.060;-0.086;2023-02-28T09:12:04;7;5;
57884;PMS5003;43703;51.060;-0.086;2023-02-28T09:14:29;8;7;
57884;PMS5003;43703;51.060;-0.086;2023-02-28T09:16:54;6;6;
57884;PMS5003;43703;51.060;-0.086;2023-02-28T09:19:19;6;6;
57884;PMS5003;43703;51.060;-0.086;2023-02-28T09:21:45;6;6;
57884;PMS5003;43703;51.060;-0.086;2023-02-28T09:24:09;6;5;
57884;PMS5003;43703;51.060;-0.086;2023-02-28T09:26:34;6;5;
57884;PMS5003;43703;51.060;-0.086;2023-02-28T09:29:00;5;5;
57884;PMS5003;43703;51.060;-0.086;2023-02-28T09:31:26;6;6;
57884;PMS5003;43703;51.060;-0.086;2023-02-28T09:33:51;5;5;
57884;PMS5003;43703;51.060;-0.086;2023-02-28T09:36:15;5;5;
57884;PMS5003;43703;51.060;-0.086;2023-02-28T09:38:40;5;5;
57884;PMS5003;43703;51.060;-0.086;2023-02-28T09:41:10;7;7;
57884;PMS5003;43703;51.060;-0.086;2023-02-28T09:43:32;4;4;
57884;PMS5003;43703;51.060;-0.086;2023-02-28T09:45:58;6;6;
57884;PMS5003;43703;51.060;-0.086;2023-02-28T09:48:22;5;5;
57884;PMS5003;43703;51.060;-0.086;2023-02-28T09:50:47;7;6;
57884;PMS5003;43703;51.060;-0.086;2023-02-28T09:53:13;3;3;
57884;PMS5003;43703;51.060;-0.086;2023-02-28T09:55:37;6;6;
57884;PMS5003;43703;51.060;-0.086;2023-02-28T09:58:01;4;4;
57884;PMS5003;43703;51.060;-0.086;2023-02-28T10:00:28;7;7;
57884;PMS5003;43703;51.060;-0.086;2023-02-28T10:02:56;7;5;
57884;PMS5003;43703;51.060;-0.086;2023-02-28T10:05:17;6;6;
57884;PMS5003;43703;51.060;-0.086;2023-02-28T10:07:47;7;7;
57884;PMS5003;43703;51.060;-0.086;2023-02-28T10:10:14;5;5;
57884;PMS5003;43703;51.060;-0.086;2023-02-28T10:12:31;5;5;
57884;PMS5003;43703;51.060;-0.086;2023-02-28T10:14:57;3;3;
57884;PMS5003;43703;51.060;-0.086;2023-02-28T10:17:23;6;5;
57884;PMS5003;43703;51.060;-0.086;2023-02-28T10:19:49;7;7;
57884;PMS5003;43703;51.060;-0.086;2023-02-28T10:22:12;6;6;
57884;PMS5003;43703;51.060;-0.086;2023-02-28T10:24:38;4;4;
57884;PMS5003;43703;51.060;-0.086;2023-02-28T10:27:06;8;7;
57884;PMS5003;43703;51.060;-0.086;2023-02-28T10:29:27;4;4;
57884;PMS5003;43703;51.060;-0.086;2023-02-28T10:31:52;5;5;
57884;PMS5003;43703;51.060;-0.086;2023-02-28T10:34:17;4;4;
57884;PMS5003;43703;51.060;-0.086;2023-02-28T10:36:42;4;4;
57884;PMS5003;43703;51.060;-0.086;2023-02-28T10:41:32;6;6;
57884;PMS5003;43703;51.060;-0.086;2023-02-28T10:46:22;4;4;
57884;PMS5003;43703;51.060;-0.086;2023-02-28T10:48:50;3;3;
57884;PMS5003;43703;51.060;-0.086;2023-02-28T10:51:13;5;4;
57884;PMS5003;43703;51.060;-0.086;2023-02-28T10:53:39;4;4;
57884;PMS5003;43703;51.060;-0.086;2023-02-28T10:56:03;5;5;
57884;PMS5003;43703;51.060;-0.086;2023-02-28T10:58:29;3;3;
57884;PMS5003;43703;51.060;-0.086;2023-02-28T11:00:53;6;5;
57884;PMS5003;43703;51.060;-0.086;2023-02-28T11:05:43;4;4;
57884;PMS5003;43703;51.060;-0.086;2023-02-28T11:08:10;5;5;
57884;PMS5003;43703;51.060;-0.086;2023-02-28T11:10:33;6;5;
57884;PMS5003;43703;51.060;-0.086;2023-02-28T11:12:58;4;4;
57884;PMS5003;43703;51.060;-0.086;2023-02-28T11:15:24;5;5;
57884;PMS5003;43703;51.060;-0.086;2023-02-28T11:17:52;9;7;
57884;PMS5003;43703;51.060;-0.086;2023-02-28T11:20:17;4;4;
57884;PMS5003;43703;51.060;-0.086;2023-02-28T11:22:39;7;6;
57884;PMS5003;43703;51.060;-0.086;2023-02-28T11:25:07;7;6;
57884;PMS5003;43703;51.060;-0.086;2023-02-28T11:29:53;4;4;
57884;PMS5003;43703;51.060;-0.086;2023-02-28T11:32:19;5;5;
57884;PMS5003;43703;51.060;-0.086;2023-02-28T11:34:44;5;5;
57884;PMS5003;43703;51.060;-0.086;2023-02-28T11:37:11;6;6;
57884;PMS5003;43703;51.060;-0.086;2023-02-28T11:39:35;5;5;
57884;PMS5003;43703;51.060;-0.086;2023-02-28T11:42:04;6;4;
57884;PMS5003;43703;51.060;-0.086;2023-02-28T11:44:28;6;6;
57884;PMS5003;43703;51.060;-0.086;2023-02-28T11:46:50;7;6;
57884;PMS5003;43703;51.060;-0.086;2023-02-28T11:49:20;5;5;
57884;PMS5003;43703;51.060;-0.086;2023-02-28T11:51:42;6;6;
57884;PMS5003;43703;51.060;-0.086;2023-02-28T11:56:31;6;6;
57884;PMS5003;43703;51.060;-0.086;2023-02-28T11:58:59;6;6;
57884;PMS5003;43703;51.060;-0.086;2023-02-28T12:01:24;8;7;
57884;PMS5003;43703;51.060;-0.086;2023-02-28T12:03:48;6;6;
57884;PMS5003;43703;51.060;-0.086;2023-02-28T12:06:15;9;9;
57884;PMS5003;43703;51.060;-0.086;2023-02-28T12:08:43;10;10;
57884;PMS5003;43703;51.060;-0.086;2023-02-28T12:11:03;10;9;
57884;PMS5003;43703;51.060;-0.086;2023-02-28T12:13:27;13;11;
57884;PMS5003;43703;51.060;-0.086;2023-02-28T12:15:56;13;11;
57884;PMS5003;43703;51.060;-0.086;2023-02-28T12:18:20;8;8;
57884;PMS5003;43703;51.060;-0.086;2023-02-28T12:20:42;8;8;
57884;PMS5003;43703;51.060;-0.086;2023-02-28T12:23:17;7;7;
57884;PMS5003;43703;51.060;-0.086;2023-02-28T12:25:38;7;7;
57884;PMS5003;43703;51.060;-0.086;2023-02-28T12:27:57;10;8;
57884;PMS5003;43703;51.060;-0.086;2023-02-28T12:30:23;14;12;
57884;PMS5003;43703;51.060;-0.086;2023-02-28T12:32:48;17;17;
57884;PMS5003;43703;51.060;-0.086;2023-02-28T12:35:13;9;6;
57884;PMS5003;43703;51.060;-0.086;2023-02-28T12:37:38;6;6;
57884;PMS5003;43703;51.060;-0.086;2023-02-28T12:40:04;8;8;
57884;PMS5003;43703;51.060;-0.086;2023-02-28T12:42:28;13;12;
57884;PMS5003;43703;51.060;-0.086;2023-02-28T12:44:54;6;6;
57884;PMS5003;43703;51.060;-0.086;2023-02-28T12:47:18;7;6;
57884;PMS5003;43703;51.060;-0.086;2023-02-28T12:49:44;5;5;
57884;PMS5003;43703;51.060;-0.086;2023-02-28T12:52:08;7;6;
57884;PMS5003;43703;51.060;-0.086;2023-02-28T12:54:35;8;7;
57884;PMS5003;43703;51.060;-0.086;2023-02-28T12:57:00;10;8;
57884;PMS5003;43703;51.060;-0.086;2023-02-28T12:59:25;8;6;
57884;PMS5003;43703;51.060;-0.086;2023-02-28T13:01:54;5;5;
57884;PMS5003;43703;51.060;-0.086;2023-02-28T13:06:42;6;6;
57884;PMS5003;43703;51.060;-0.086;2023-02-28T13:09:05;8;8;
57884;PMS5003;43703;51.060;-0.086;2023-02-28T13:11:29;7;6;
57884;PMS5003;43703;51.060;-0.086;2023-02-28T13:13:57;6;6;
57884;PMS5003;43703;51.060;-0.086;2023-02-28T13:16:19;7;7;
57884;PMS5003;43703;51.060;-0.086;2023-02-28T13:18:44;7;7;
57884;PMS5003;43703;51.060;-0.086;2023-02-28T13:21:09;9;9;
57884;PMS5003;43703;51.060;-0.086;2023-02-28T13:23:40;8;8;
57884;PMS5003;43703;51.060;-0.086;2023-02-28T13:25:59;17;17;
57884;PMS5003;43703;51.060;-0.086;2023-02-28T13:33:20;10;9;
57884;PMS5003;43703;51.060;-0.086;2023-02-28T13:35:43;5;5;
57884;PMS5003;43703;51.060;-0.086;2023-02-28T13:40:30;7;6;
57884;PMS5003;43703;51.060;-0.086;2023-02-28T13:42:54;8;8;
57884;PMS5003;43703;51.060;-0.086;2023-02-28T13:45:21;6;6;
57884;PMS5003;43703;51.060;-0.086;2023-02-28T13:47:45;6;5;
57884;PMS5003;43703;51.060;-0.086;2023-02-28T13:52:35;8;8;
57884;PMS5003;43703;51.060;-0.086;2023-02-28T13:57:29;10;10;
57884;PMS5003;43703;51.060;-0.086;2023-02-28T13:59:53;12;9;
57884;PMS5003;43703;51.060;-0.086;2023-02-28T14:04:49;10;10;
57884;PMS5003;43703;51.060;-0.086;2023-02-28T14:07:06;24;23;
57884;PMS5003;43703;51.060;-0.086;2023-02-28T14:09:32;24;24;
57884;PMS5003;43703;51.060;-0.086;2023-02-28T14:11:57;8;8;
57884;PMS5003;43703;51.060;-0.086;2023-02-28T14:16:47;10;10;
57884;PMS5003;43703;51.060;-0.086;2023-02-28T14:19:12;9;7;
57884;PMS5003;43703;51.060;-0.086;2023-02-28T14:21:38;11;10;
57884;PMS5003;43703;51.060;-0.086;2023-02-28T14:24:09;7;7;
57884;PMS5003;43703;51.060;-0.086;2023-02-28T14:28:56;10;9;
57884;PMS5003;43703;51.060;-0.086;2023-02-28T14:31:18;7;6;
57884;PMS5003;43703;51.060;-0.086;2023-02-28T14:33:45;9;8;
57884;PMS5003;43703;51.060;-0.086;2023-02-28T14:36:10;8;8;
57884;PMS5003;43703;51.060;-0.086;2023-02-28T14:38:35;10;8;
57884;PMS5003;43703;51.060;-0.086;2023-02-28T14:40:58;6;6;
57884;PMS5003;43703;51.060;-0.086;2023-02-28T14:43:23;7;7;
57884;PMS5003;43703;51.060;-0.086;2023-02-28T14:45:49;10;10;
57884;PMS5003;43703;51.060;-0.086;2023-02-28T14:48:14;8;8;
57884;PMS5003;43703;51.060;-0.086;2023-02-28T14:50:38;9;6;
57884;PMS5003;43703;51.060;-0.086;2023-02-28T14:53:03;8;8;
57884;PMS5003;43703;51.060;-0.086;2023-02-28T14:55:29;10;10;
57884;PMS5003;43703;51.060;-0.086;2023-02-28T14:57:54;8;8;
57884;PMS5003;43703;51.060;-0.086;2023-02-28T15:00:21;11;10;
57884;PMS5003;43703;51.060;-0.086;2023-02-28T15:02:44;6;6;
57884;PMS5003;43703;51.060;-0.086;2023-02-28T15:07:34;5;5;
57884;PMS5003;43703;51.060;-0.086;2023-02-28T15:12:24;5;5;
57884;PMS5003;43703;51.060;-0.086;2023-02-28T15:14:49;6;6;
57884;PMS5003;43703;51.060;-0.086;2023-02-28T15:17:16;8;6;
57884;PMS5003;43703;51.060;-0.086;2023-02-28T15:19:40;8;6;
57884;PMS5003;43703;51.060;-0.086;2023-02-28T15:22:04;7;5;
57884;PMS5003;43703;51.060;-0.086;2023-02-28T15:24:31;9;7;
57884;PMS5003;43703;51.060;-0.086;2023-02-28T15:26:55;6;6;
57884;PMS5003;43703;51.060;-0.086;2023-02-28T15:29:21;7;7;
57884;PMS5003;43703;51.060;-0.086;2023-02-28T15:31:46;6;6;
57884;PMS5003;43703;51.060;-0.086;2023-02-28T15:34:19;9;7;
57884;PMS5003;43703;51.060;-0.086;2023-02-28T15:36:35;9;9;
57884;PMS5003;43703;51.060;-0.086;2023-02-28T15:39:00;8;7;
57884;PMS5003;43703;51.060;-0.086;2023-02-28T15:41:26;6;6;
57884;PMS5003;43703;51.060;-0.086;2023-02-28T15:43:57;7;7;
57884;PMS5003;43703;51.060;-0.086;2023-02-28T15:46:15;8;8;
57884;PMS5003;43703;51.060;-0.086;2023-02-28T15:48:43;6;6;
57884;PMS5003;43703;51.060;-0.086;2023-02-28T15:51:06;7;6;
57884;PMS5003;43703;51.060;-0.086;2023-02-28T15:53:31;6;6;
57884;PMS5003;43703;51.060;-0.086;2023-02-28T15:55:58;6;6;
57884;PMS5003;43703;51.060;-0.086;2023-02-28T15:58:21;9;8;
57884;PMS5003;43703;51.060;-0.086;2023-02-28T16:00:59;5;5;
57884;PMS5003;43703;51.060;-0.086;2023-02-28T16:05:37;6;4;
57884;PMS5003;43703;51.060;-0.086;2023-02-28T16:08:06;8;6;
57884;PMS5003;43703;51.060;-0.086;2023-02-28T16:10:26;5;5;
57884;PMS5003;43703;51.060;-0.086;2023-02-28T16:12:53;8;8;
57884;PMS5003;43703;51.060;-0.086;2023-02-28T16:15:18;9;9;
57884;PMS5003;43703;51.060;-0.086;2023-02-28T16:17:41;8;6;
57884;PMS5003;43703;51.060;-0.086;2023-02-28T16:22:32;6;6;
57884;PMS5003;43703;51.060;-0.086;2023-02-28T16:24:56;7;7;
57884;PMS5003;43703;51.060;-0.086;2023-02-28T16:27:23;11;11;
57884;PMS5003;43703;51.060;-0.086;2023-02-28T16:37:02;5;5;
57884;PMS5003;43703;51.060;-0.086;2023-02-28T16:39:27;5;5;
57884;PMS5003;43703;51.060;-0.086;2023-02-28T16:41:52;7;7;
57884;PMS5003;43703;51.060;-0.086;2023-02-28T16:44:21;4;4;
57884;PMS5003;43703;51.060;-0.086;2023-02-28T16:46:42;7;5;
57884;PMS5003;43703;51.060;-0.086;2023-02-28T16:49:09;6;6;
57884;PMS5003;43703;51.060;-0.086;2023-02-28T16:51:32;7;5;
57884;PMS5003;43703;51.060;-0.086;2023-02-28T16:53:57;5;5;
57884;PMS5003;43703;51.060;-0.086;2023-02-28T16:56:23;6;5;
57884;PMS5003;43703;51.060;-0.086;2023-02-28T16:58:48;4;4;
57884;PMS5003;43703;51.060;-0.086;2023-02-28T17:01:12;5;5;
57884;PMS5003;43703;51.060;-0.086;2023-02-28T17:03:38;5;5;
57884;PMS5003;43703;51.060;-0.086;2023-02-28T17:06:03;7;7;
57884;PMS5003;43703;51.060;-0.086;2023-02-28T17:08:28;13;12;